Time;durP1;ratioP1;P1;durP2;ratioP2;P2;SDS_P1;SDS_P2;PMS_P1;PMS_P2;Temp;Humidity;BMP_temperature;BMP_pressure;BME280_temperature;BME280_humidity;BME280_pressure;Samples;Min_cycle;Max_cycle;Signal;HPM_P1;HPM_P2
2021/01/05 00:00:31;;;;;;;39.90;22.85;;;;;;;6.33;68.63;99888.84;4924233;28;96813;-68
2021/01/05 00:02:58;;;;;;;30.52;23.27;;;;;;;6.34;69.02;99875.88;4935431;28;96689;-67
2021/01/05 00:05:24;;;;;;;28.55;22.30;;;;;;;6.14;69.80;99868.84;4951469;28;98608;-68
2021/01/05 00:07:51;;;;;;;26.35;19.95;;;;;;;6.11;69.19;99856.00;4950990;28;98546;-68
2021/01/05 00:10:18;;;;;;;29.30;22.05;;;;;;;6.16;69.88;99856.69;4952649;28;96527;-68
2021/01/05 00:12:44;;;;;;;26.73;19.77;;;;;;;6.25;69.84;99866.69;4948869;28;97049;-68
2021/01/05 00:15:11;;;;;;;29.63;21.42;;;;;;;6.52;68.42;99874.28;4953610;28;98772;-68
2021/01/05 00:17:37;;;;;;;30.90;20.33;;;;;;;6.53;68.16;99875.97;4936496;28;98893;-68
2021/01/05 00:20:28;;;;;;;25.90;20.27;;;;;;;6.57;68.40;99891.34;4953864;28;96592;-68
2021/01/05 00:22:54;;;;;;;25.27;19.02;;;;;;;6.64;68.09;99907.47;4953215;28;96723;-68
2021/01/05 00:25:21;;;;;;;26.38;20.30;;;;;;;6.63;68.00;99907.53;4952759;28;98415;-68
2021/01/05 00:27:47;;;;;;;23.77;18.85;;;;;;;6.52;68.51;99913.13;4953270;28;98914;-68
2021/01/05 00:30:19;;;;;;;24.15;18.48;;;;;;;6.63;68.08;99910.97;4953687;28;96688;-68
2021/01/05 00:32:46;;;;;;;22.58;17.52;;;;;;;6.69;67.71;99922.84;4952958;28;97279;-68
2021/01/05 00:35:22;;;;;;;20.15;16.50;;;;;;;6.49;68.97;99919.25;4952610;28;98508;-68
2021/01/05 00:37:48;;;;;;;24.02;17.95;;;;;;;6.58;69.26;99915.47;4953579;28;98675;-68
2021/01/05 00:40:15;;;;;;;25.92;18.58;;;;;;;6.46;69.56;99927.16;4953181;28;96570;-68
2021/01/05 00:42:42;;;;;;;26.13;19.48;;;;;;;6.33;70.16;99925.09;4953832;28;96562;-68
2021/01/05 00:45:23;;;;;;;29.42;19.00;;;;;;;6.32;70.16;99918.22;4951170;28;98711;-69
2021/01/05 00:47:50;;;;;;;24.45;18.27;;;;;;;6.40;70.88;99923.97;4948498;28;98625;-68
2021/01/05 00:50:16;;;;;;;24.92;18.90;;;;;;;6.52;69.48;99921.75;4931965;28;96683;-68
2021/01/05 00:52:43;;;;;;;23.13;16.80;;;;;;;6.55;69.85;99918.19;4946359;28;97144;-68
2021/01/05 00:55:11;;;;;;;24.52;18.15;;;;;;;6.64;69.76;99923.00;4953071;28;100435;-68
2021/01/05 00:57:42;;;;;;;27.90;18.55;;;;;;;6.55;70.38;99932.00;4948903;28;99992;-68
2021/01/05 01:00:15;;;;;;;27.13;19.50;;;;;;;6.76;69.50;99935.47;4915109;28;97734;-68
2021/01/05 01:02:41;;;;;;;24.10;18.08;;;;;;;6.75;69.10;99932.94;4946067;28;97525;-68
2021/01/05 01:05:08;;;;;;;25.20;17.98;;;;;;;6.77;69.96;99931.16;4945772;28;98506;-68
2021/01/05 01:07:35;;;;;;;24.17;18.60;;;;;;;6.72;70.10;99943.47;4949339;28;100245;-68
2021/01/05 01:10:03;;;;;;;26.65;18.35;;;;;;;6.66;70.60;99935.91;4946969;28;96810;-68
2021/01/05 01:12:29;;;;;;;20.95;17.00;;;;;;;6.73;70.37;99935.63;4948425;28;97263;-68
2021/01/05 01:14:58;;;;;;;25.92;18.55;;;;;;;6.82;69.68;99932.66;4934240;28;99930;-69
2021/01/05 01:17:26;;;;;;;23.15;18.65;;;;;;;6.67;70.67;99937.59;4952412;28;100113;-68
2021/01/05 01:19:55;;;;;;;23.95;17.67;;;;;;;6.59;71.31;99926.69;4952595;28;96797;-68
2021/01/05 01:22:22;;;;;;;25.17;18.67;;;;;;;6.85;70.58;99934.28;4949941;28;99054;-68
2021/01/05 01:24:54;;;;;;;23.40;17.35;;;;;;;6.99;68.96;99936.34;4922983;28;100039;-68
2021/01/05 01:27:28;;;;;;;21.60;16.30;;;;;;;6.99;69.10;99933.75;4933380;28;100687;-68
2021/01/05 01:29:55;;;;;;;24.38;16.58;;;;;;;6.82;69.94;99930.09;4937780;28;98374;-68
2021/01/05 01:32:22;;;;;;;28.27;20.23;;;;;;;6.54;71.19;99926.84;4950730;28;99440;-68
2021/01/05 01:34:48;;;;;;;23.73;18.75;;;;;;;6.56;71.22;99938.88;4935146;28;99737;-68
2021/01/05 01:37:19;;;;;;;23.98;16.73;;;;;;;6.84;70.07;99937.78;4941806;28;99797;-69
2021/01/05 01:39:50;;;;;;;19.73;15.55;;;;;;;6.93;69.73;99924.47;4936047;28;98912;-68
2021/01/05 01:42:24;;;;;;;22.25;16.73;;;;;;;7.00;69.17;99922.47;4936960;28;97923;-68
2021/01/05 01:44:51;;;;;;;23.95;18.38;;;;;;;6.74;69.94;99920.91;4935839;28;100241;-68
2021/01/05 01:47:36;;;;;;;25.15;17.98;;;;;;;6.67;70.12;99922.91;4951989;28;99587;-68
2021/01/05 01:50:12;;;;;;;23.73;19.70;;;;;;;6.62;70.64;99913.63;4935585;28;99184;-69
2021/01/05 01:52:42;;;;;;;26.30;16.85;;;;;;;6.59;70.82;99904.22;4907211;28;97489;-68
2021/01/05 01:55:13;;;;;;;28.30;19.15;;;;;;;6.68;70.52;99903.88;4934424;28;100356;-69
2021/01/05 01:58:03;;;;;;;29.08;21.05;;;;;;;6.73;70.08;99903.69;4927383;28;100520;-69
2021/01/05 02:00:42;;;;;;;25.98;20.50;;;;;;;6.61;71.38;99907.63;4932331;28;97850;-69
2021/01/05 02:03:23;;;;;;;23.13;18.77;;;;;;;6.60;71.57;99899.88;4932426;28;98486;-68
2021/01/05 02:06:08;;;;;;;23.27;18.05;;;;;;;6.67;71.25;99897.00;4918737;28;100016;-68
2021/01/05 02:09:14;;;;;;;23.25;18.10;;;;;;;6.72;71.27;99912.38;4951354;28;99874;-68
2021/01/05 02:11:46;;;;;;;26.60;20.60;;;;;;;6.77;70.81;99906.09;4932499;28;97423;-69
2021/01/05 02:14:41;;;;;;;26.07;19.73;;;;;;;6.71;71.13;99901.16;4931893;28;97187;-68
2021/01/05 02:17:39;;;;;;;23.38;17.42;;;;;;;6.82;70.41;99908.50;4935350;28;100458;-70
2021/01/05 02:20:23;;;;;;;29.65;17.48;;;;;;;6.69;70.99;99907.28;4935410;28;100243;-68
2021/01/05 02:23:18;;;;;;;;;;;;;;;6.98;70.02;99917.34;4934014;28;97113;-68
2021/01/05 02:26:06;;;;;;;25.38;17.08;;;;;;;6.81;70.84;99918.00;4920308;28;97080;-68
2021/01/05 02:28:42;;;;;;;23.00;17.73;;;;;;;6.98;70.39;99921.69;4934455;28;100225;-68
2021/01/05 02:31:48;;;;;;;28.75;21.00;;;;;;;7.01;69.43;99918.97;4901109;28;100560;-68
2021/01/05 02:34:14;;;;;;;24.45;18.60;;;;;;;6.90;69.93;99916.81;4948370;28;96762;-68
2021/01/05 02:36:43;;;;;;;22.02;16.73;;;;;;;6.95;70.07;99922.66;4949324;28;97399;-68
2021/01/05 02:39:58;;;;;;;24.30;18.33;;;;;;;6.76;70.61;99906.97;4948167;28;100295;-68
2021/01/05 02:43:21;;;;;;;25.98;18.42;;;;;;;6.78;71.01;99900.00;4943664;28;97542;-68
2021/01/05 02:46:13;;;;;;;26.70;18.75;;;;;;;6.47;72.22;99895.19;4947974;28;96713;-69
2021/01/05 02:49:07;;;;;;;23.70;17.55;;;;;;;6.55;71.83;99892.28;4933767;28;98676;-69
2021/01/05 02:51:58;;;;;;;24.73;19.83;;;;;;;6.51;72.04;99882.97;4947750;28;98132;-68
2021/01/05 02:55:11;;;;;;;25.05;17.77;;;;;;;6.51;71.58;99875.22;4934511;28;97980;-69
2021/01/05 02:58:00;;;;;;;23.00;17.58;;;;;;;6.56;71.51;99879.28;4950156;28;98554;-68
2021/01/05 03:00:58;;;;;;;24.15;17.42;;;;;;;6.63;70.88;99876.47;4936474;28;99561;-68
2021/01/05 03:03:47;;;;;;;22.20;17.90;;;;;;;6.89;69.49;99888.38;4937464;28;99575;-68
2021/01/05 03:06:37;;;;;;;24.38;17.52;;;;;;;6.82;70.43;99877.44;4937453;28;99123;-68
2021/01/05 03:09:43;;;;;;;22.65;16.45;;;;;;;6.62;71.05;99875.63;4938843;28;98366;-68
2021/01/05 03:12:34;;;;;;;23.48;16.52;;;;;;;6.45;72.18;99872.84;4947204;28;100464;-68
2021/01/05 03:15:34;;;;;;;23.27;17.17;;;;;;;6.67;71.21;99873.69;4948282;28;97807;-68
2021/01/05 03:18:52;;;;;;;26.80;17.50;;;;;;;6.68;70.88;99862.41;4947332;28;97223;-68
2021/01/05 03:21:39;;;;;;;23.73;17.23;;;;;;;6.60;71.49;99861.03;4937871;28;98830;-68
2021/01/05 03:24:24;;;;;;;20.67;16.80;;;;;;;6.47;71.57;99871.88;4934898;28;97360;-68
2021/01/05 03:27:09;;;;;;;;;;;;;;;6.34;72.29;99870.69;4949125;28;99660;-68
2021/01/05 03:30:02;;;;;;;19.75;15.82;;;;;;;6.44;71.88;99865.97;4950028;28;101000;-68
2021/01/05 03:32:47;;;;;;;21.17;15.73;;;;;;;6.65;70.92;99859.94;4948312;28;97866;-68
2021/01/05 03:35:34;;;;;;;24.45;16.35;;;;;;;6.56;71.61;99855.16;4913460;28;98597;-68
2021/01/05 03:38:26;;;;;;;24.35;18.25;;;;;;;6.20;72.58;99857.41;4931158;28;97805;-68
2021/01/05 03:41:11;;;;;;;21.52;16.05;;;;;;;6.30;72.70;99856.16;4946142;28;97883;-68
2021/01/05 03:43:56;;;;;;;22.73;15.20;;;;;;;6.37;72.24;99864.53;4947762;28;97093;-69
2021/01/05 03:46:41;;;;;;;19.83;14.45;;;;;;;6.67;70.99;99845.19;4938312;28;97461;-69
2021/01/05 03:49:26;;;;;;;21.60;17.00;;;;;;;6.54;71.06;99839.66;4946852;28;97266;-68
2021/01/05 03:52:10;;;;;;;17.70;14.38;;;;;;;6.50;71.09;99845.03;4947936;28;97089;-69
2021/01/05 03:54:55;;;;;;;21.08;15.43;;;;;;;6.24;72.39;99838.28;4947174;28;98515;-69
2021/01/05 03:57:40;;;;;;;22.90;16.33;;;;;;;6.40;72.46;99838.53;4948925;28;96715;-69
2021/01/05 04:00:28;;;;;;;;;;;;;;;6.51;71.53;99831.19;4946212;28;97193;-69
2021/01/05 04:03:00;;;;;;;20.20;16.07;;;;;;;6.41;72.19;99835.03;4931599;28;100244;-69
2021/01/05 04:05:27;;;;;;;21.77;16.95;;;;;;;6.40;72.28;99831.59;4947166;28;96760;-69
2021/01/05 04:07:54;;;;;;;22.92;17.73;;;;;;;6.45;71.88;99828.84;4947391;28;99938;-69
2021/01/05 04:10:20;;;;;;;19.30;14.35;;;;;;;6.40;72.47;99820.41;4946276;28;97580;-69
2021/01/05 04:12:46;;;;;;;22.13;16.20;;;;;;;6.32;72.82;99827.63;4946307;28;97664;-68
2021/01/05 04:15:18;;;;;;;19.73;14.63;;;;;;;6.35;72.60;99827.50;4947610;28;96732;-69
2021/01/05 04:17:45;;;;;;;26.10;17.15;;;;;;;6.59;71.90;99821.34;4947457;28;97086;-68
2021/01/05 04:20:11;;;;;;;20.75;14.90;;;;;;;6.49;72.38;99818.28;4950519;28;98655;-69
2021/01/05 04:22:38;;;;;;;19.05;14.95;;;;;;;6.67;71.50;99821.88;4945837;28;100821;-69
2021/01/05 04:25:05;;;;;;;17.30;14.55;;;;;;;6.69;71.47;99825.25;4946332;28;96726;-69
2021/01/05 04:27:31;;;;;;;23.55;17.73;;;;;;;6.71;71.42;99820.88;4945857;28;100369;-68
2021/01/05 04:29:58;;;;;;;19.83;16.75;;;;;;;6.68;71.52;99814.97;4946190;28;99818;-68
2021/01/05 04:32:25;;;;;;;22.50;17.40;;;;;;;6.69;71.23;99816.63;4947348;28;98789;-68
2021/01/05 04:34:51;;;;;;;23.95;17.17;;;;;;;6.76;71.46;99823.25;4946399;28;97516;-68
2021/01/05 04:37:18;;;;;;;22.23;16.95;;;;;;;6.80;71.17;99817.88;4929585;28;97324;-68
2021/01/05 04:39:44;;;;;;;26.23;17.63;;;;;;;6.69;71.76;99816.63;4951678;28;98405;-68
2021/01/05 04:42:19;;;;;;;29.60;19.27;;;;;;;6.53;72.12;99824.19;4949360;28;98613;-68
2021/01/05 04:44:58;;;;;;;;;;;;;;;6.71;71.22;99823.47;4953252;28;97222;-68
2021/01/05 04:47:59;;;;;;;30.15;20.95;;;;;;;6.66;72.06;99822.81;4944040;28;97061;-68
2021/01/05 04:50:35;;;;;;;27.67;18.92;;;;;;;6.75;71.75;99818.97;4950791;28;98471;-68
2021/01/05 04:53:21;;;;;;;25.40;20.05;;;;;;;6.74;70.91;99823.31;4931913;28;98612;-69
2021/01/05 04:55:59;;;;;;;23.92;17.33;;;;;;;6.73;71.51;99825.97;4928720;28;96654;-68
2021/01/05 04:58:34;;;;;;;25.27;18.80;;;;;;;6.64;71.80;99828.94;4938400;28;96610;-68
2021/01/05 05:01:13;;;;;;;21.35;16.73;;;;;;;6.80;71.57;99836.00;4942913;28;98628;-68
2021/01/05 05:04:03;;;;;;;22.73;17.55;;;;;;;6.72;71.73;99832.91;4923747;28;98741;-68
2021/01/05 05:06:35;;;;;;;23.35;20.33;;;;;;;6.74;71.79;99827.66;4943321;28;98285;-68
2021/01/05 05:09:25;;;;;;;23.58;17.02;;;;;;;6.85;71.44;99822.03;4924296;28;96596;-69
2021/01/05 05:11:59;;;;;;;20.33;17.15;;;;;;;6.76;72.12;99811.13;4946784;28;98474;-68
2021/01/05 05:14:45;;;;;;;23.67;17.70;;;;;;;6.80;70.98;99810.09;4944068;28;98454;-68
2021/01/05 05:17:27;;;;;;;17.40;14.07;;;;;;;6.22;73.10;99815.03;4949089;28;96937;-68
2021/01/05 05:20:01;;;;;;;16.38;14.52;;;;;;;6.59;72.12;99813.56;4941507;28;96751;-68
2021/01/05 05:22:47;;;;;;;19.10;15.35;;;;;;;6.59;72.03;99817.91;4924695;28;98614;-68
2021/01/05 05:25:20;;;;;;;18.25;13.70;;;;;;;6.40;72.72;99823.00;4955459;28;99035;-67
2021/01/05 05:28:08;;;;;;;16.42;13.73;;;;;;;6.46;71.32;99815.81;4948832;28;98893;-67
2021/01/05 05:30:37;;;;;;;17.45;12.93;;;;;;;6.43;71.90;99815.09;4919308;28;98124;-68
2021/01/05 05:33:29;;;;;;;14.77;13.18;;;;;;;6.51;72.04;99819.06;4949036;28;98977;-68
2021/01/05 05:36:10;;;;;;;15.57;11.75;;;;;;;6.47;71.89;99825.28;4921994;28;98588;-67
2021/01/05 05:39:02;;;;;;;16.45;11.82;;;;;;;6.52;72.16;99825.09;4936371;28;96824;-67
2021/01/05 05:41:38;;;;;;;14.73;11.65;;;;;;;6.53;71.58;99827.63;4950104;28;98122;-68
2021/01/05 05:44:19;;;;;;;14.88;11.30;;;;;;;6.55;71.08;99828.41;4932557;28;99714;-67
2021/01/05 05:46:48;;;;;;;14.25;11.80;;;;;;;6.49;71.32;99838.16;4936834;28;98667;-67
2021/01/05 05:49:35;;;;;;;16.48;10.52;;;;;;;6.51;71.74;99833.78;4918476;28;98182;-67
2021/01/05 05:52:03;;;;;;;13.98;11.40;;;;;;;6.42;71.35;99834.13;4935823;28;97833;-68
2021/01/05 05:54:31;;;;;;;11.93;10.63;;;;;;;6.49;70.90;99822.63;4921136;28;98432;-69
2021/01/05 05:56:57;;;;;;;14.38;11.55;;;;;;;6.62;71.00;99826.41;4917173;28;98582;-68
2021/01/05 05:59:39;;;;;;;15.48;11.55;;;;;;;6.42;70.63;99821.19;4949928;28;97049;-68
2021/01/05 06:02:06;;;;;;;14.05;11.52;;;;;;;6.40;71.41;99820.41;4921484;28;97086;-67
2021/01/05 06:04:34;;;;;;;18.27;12.80;;;;;;;6.52;71.18;99832.88;4947592;28;99966;-67
2021/01/05 06:07:01;;;;;;;15.95;11.60;;;;;;;6.52;71.29;99827.69;4936808;28;98815;-67
2021/01/05 06:09:27;;;;;;;16.27;12.25;;;;;;;6.66;69.98;99816.75;4937553;28;97613;-69
2021/01/05 06:11:54;;;;;;;14.90;13.30;;;;;;;6.38;71.58;99824.78;4950737;28;97923;-69
2021/01/05 06:14:20;;;;;;;17.50;11.70;;;;;;;6.51;70.61;99821.66;4950596;28;99013;-68
2021/01/05 06:16:47;;;;;;;13.52;11.07;;;;;;;6.51;70.00;99823.41;4949587;28;98688;-68
2021/01/05 06:19:13;;;;;;;17.52;13.95;;;;;;;6.71;69.63;99820.88;4949759;28;97695;-68
2021/01/05 06:21:39;;;;;;;15.75;11.30;;;;;;;6.93;68.75;99822.56;4949915;28;97213;-68
2021/01/05 06:24:06;;;;;;;20.63;15.05;;;;;;;6.79;69.55;99821.38;4949195;28;98675;-66
2021/01/05 06:26:33;;;;;;;21.23;15.40;;;;;;;6.88;69.17;99822.75;4950192;28;98749;-66
2021/01/05 06:28:59;;;;;;;22.10;14.25;;;;;;;6.79;70.07;99816.19;4953653;28;97145;-68
2021/01/05 06:31:25;;;;;;;25.30;15.23;;;;;;;6.73;70.08;99815.63;4953997;28;97026;-67
2021/01/05 06:33:52;;;;;;;19.33;14.02;;;;;;;6.68;70.87;99827.91;4953735;28;98796;-71
2021/01/05 06:36:22;;;;;;;16.20;13.35;;;;;;;6.75;69.80;99817.22;4955895;28;98790;-70
2021/01/05 06:38:48;;;;;;;16.88;14.45;;;;;;;6.81;70.24;99819.56;4955665;28;96596;-70
2021/01/05 06:41:14;;;;;;;23.98;17.65;;;;;;;6.70;70.40;99813.97;4948599;28;97031;-70
2021/01/05 06:43:41;;;;;;;22.50;16.27;;;;;;;6.79;70.51;99821.38;4943289;28;100481;-70
2021/01/05 06:46:08;;;;;;;22.75;14.70;;;;;;;6.71;71.18;99818.28;4947034;28;98781;-71
2021/01/05 06:48:35;;;;;;;22.63;17.05;;;;;;;6.75;71.43;99812.03;4950360;28;97490;-71
2021/01/05 06:51:03;;;;;;;24.58;17.67;;;;;;;6.89;70.81;99814.06;4935795;28;97215;-70
2021/01/05 06:53:30;;;;;;;23.70;17.80;;;;;;;6.92;70.71;99819.13;4952896;28;98556;-70
2021/01/05 06:55:56;;;;;;;28.48;16.67;;;;;;;6.99;70.48;99820.56;4952273;28;98547;-71
2021/01/05 06:58:27;;;;;;;22.98;16.10;;;;;;;6.99;70.18;99822.31;4951202;28;96680;-72
2021/01/05 07:00:54;;;;;;;27.95;18.60;;;;;;;6.80;70.45;99817.03;4936316;28;96735;-71
2021/01/05 07:03:20;;;;;;;23.85;20.65;;;;;;;6.81;70.92;99819.56;4953184;28;98623;-71
2021/01/05 07:05:47;;;;;;;30.30;17.83;;;;;;;6.85;70.79;99819.44;4952389;28;98733;-73
2021/01/05 07:08:13;;;;;;;25.15;18.30;;;;;;;6.85;70.20;99822.03;4954867;28;96708;-72
2021/01/05 07:10:39;;;;;;;22.33;16.75;;;;;;;6.82;71.12;99820.44;4935809;28;96817;-72
2021/01/05 07:13:05;;;;;;;28.17;18.77;;;;;;;6.80;70.63;99823.06;4951880;28;98608;-73
2021/01/05 07:15:32;;;;;;;25.45;15.80;;;;;;;6.81;70.42;99818.72;4954175;28;98500;-71
2021/01/05 07:17:59;;;;;;;23.88;16.92;;;;;;;6.64;71.13;99811.63;4953666;28;97075;-72
2021/01/05 07:20:25;;;;;;;23.88;16.13;;;;;;;6.71;71.00;99818.28;4953423;28;97599;-71
2021/01/05 07:22:52;;;;;;;24.90;16.98;;;;;;;6.74;70.85;99818.13;4951608;28;98816;-70
2021/01/05 07:25:18;;;;;;;25.00;16.30;;;;;;;6.78;70.54;99819.69;4952846;28;98469;-72
2021/01/05 07:27:44;;;;;;;25.48;16.55;;;;;;;6.74;70.68;99820.72;4950309;28;96670;-72
2021/01/05 07:30:11;;;;;;;23.27;14.82;;;;;;;6.70;71.28;99826.94;4953510;28;96975;-72
2021/01/05 07:32:38;;;;;;;27.13;17.80;;;;;;;6.73;71.92;99819.03;4950138;28;98580;-72
2021/01/05 07:35:05;;;;;;;32.08;18.70;;;;;;;6.64;71.62;99824.59;4948394;28;98379;-67
2021/01/05 07:37:34;;;;;;;26.50;18.13;;;;;;;6.52;71.95;99817.31;4952288;28;98217;-68
2021/01/05 07:40:00;;;;;;;29.27;17.52;;;;;;;6.65;71.34;99813.31;4920079;28;96932;-67
2021/01/05 07:42:28;;;;;;;32.53;17.00;;;;;;;6.58;71.31;99814.47;4952456;28;98430;-67
2021/01/05 07:44:56;;;;;;;27.77;16.65;;;;;;;6.46;71.92;99818.41;4951050;28;98534;-68
2021/01/05 07:47:23;;;;;;;30.05;18.30;;;;;;;6.60;72.19;99811.81;4951994;28;97727;-67
2021/01/05 07:49:50;;;;;;;25.88;15.85;;;;;;;6.46;72.32;99810.66;4919150;28;96738;-69
2021/01/05 07:52:35;;;;;;;27.90;16.05;;;;;;;6.63;72.52;99815.16;4952748;28;98391;-68
2021/01/05 07:55:04;;;;;;;25.20;17.85;;;;;;;6.56;72.46;99806.78;4950551;28;97967;-67
2021/01/05 07:57:31;;;;;;;24.50;15.85;;;;;;;6.63;72.40;99809.13;4952153;28;97098;-68
2021/01/05 07:59:58;;;;;;;29.00;16.05;;;;;;;6.56;72.46;99805.94;4952220;28;97040;-69
2021/01/05 08:02:24;;;;;;;20.83;15.05;;;;;;;6.69;72.40;99808.88;4946881;28;98968;-67
2021/01/05 08:04:52;;;;;;;27.42;17.15;;;;;;;6.75;71.60;99803.44;4934380;28;98520;-67
2021/01/05 08:07:18;;;;;;;25.98;16.52;;;;;;;6.78;71.25;99803.31;4951983;28;96570;-70
2021/01/05 08:09:44;;;;;;;21.92;14.25;;;;;;;6.76;71.91;99800.78;4952615;28;96846;-68
2021/01/05 08:12:18;;;;;;;26.73;16.52;;;;;;;6.76;71.45;99799.94;4954714;28;98741;-69
2021/01/05 08:14:44;;;;;;;23.67;14.93;;;;;;;6.69;71.74;99799.34;4953116;28;98488;-67
2021/01/05 08:17:11;;;;;;;24.92;14.18;;;;;;;6.77;71.70;99801.63;4952108;28;97092;-65
2021/01/05 08:19:41;;;;;;;23.33;14.35;;;;;;;6.83;71.66;99801.38;4950366;28;96641;-67
2021/01/05 08:22:07;;;;;;;21.75;14.50;;;;;;;6.79;71.73;99798.06;4951427;28;98989;-68
2021/01/05 08:24:34;;;;;;;23.63;14.98;;;;;;;6.76;71.82;99794.75;4947975;28;98472;-63
2021/01/05 08:27:00;;;;;;;23.33;14.63;;;;;;;6.83;71.72;99799.63;4952716;28;97114;-61
2021/01/05 08:29:28;;;;;;;22.80;14.32;;;;;;;6.83;72.02;99796.19;4934741;28;96696;-60
2021/01/05 08:31:55;;;;;;;20.85;14.30;;;;;;;6.93;71.50;99791.47;4951286;28;97576;-61
2021/01/05 08:34:21;;;;;;;20.27;14.80;;;;;;;6.63;72.97;99789.25;4950897;28;98613;-63
2021/01/05 08:36:47;;;;;;;24.30;15.10;;;;;;;6.65;72.71;99782.25;4952585;28;97349;-63
2021/01/05 08:39:17;;;;;;;20.88;13.75;;;;;;;6.65;73.38;99779.66;4953196;28;97140;-63
2021/01/05 08:41:43;;;;;;;24.05;15.05;;;;;;;6.51;73.74;99780.22;4952456;28;98598;-66
2021/01/05 08:44:10;;;;;;;20.17;13.45;;;;;;;6.55;72.76;99778.34;4952222;28;98466;-65
2021/01/05 08:46:37;;;;;;;20.63;12.75;;;;;;;6.82;71.74;99771.19;4952527;28;97240;-68
2021/01/05 08:49:04;;;;;;;22.58;13.52;;;;;;;6.83;71.84;99775.47;4952665;28;96588;-66
2021/01/05 08:51:32;;;;;;;17.13;12.75;;;;;;;6.90;71.71;99781.22;4952098;28;98489;-65
2021/01/05 08:53:59;;;;;;;24.27;14.05;;;;;;;6.90;71.11;99776.03;4933117;28;99185;-68
2021/01/05 08:56:26;;;;;;;27.27;14.85;;;;;;;6.73;71.52;99775.00;4952457;28;96522;-69
2021/01/05 08:58:54;;;;;;;20.00;11.77;;;;;;;6.75;72.41;99778.38;4952032;28;96685;-67
2021/01/05 09:01:21;;;;;;;23.73;15.68;;;;;;;6.83;71.62;99776.31;4934317;28;98644;-67
2021/01/05 09:03:48;;;;;;;24.90;14.07;;;;;;;6.89;71.74;99774.38;4955332;28;98623;-66
2021/01/05 09:06:19;;;;;;;19.70;14.05;;;;;;;6.84;71.35;99777.16;4951837;28;97031;-65
2021/01/05 09:08:46;;;;;;;18.92;11.85;;;;;;;6.75;72.81;99768.00;4952725;28;96897;-66
2021/01/05 09:11:20;;;;;;;20.77;13.50;;;;;;;6.88;72.17;99768.34;4944802;28;98506;-66
2021/01/05 09:13:46;;;;;;;20.90;13.88;;;;;;;6.85;72.42;99773.66;4934501;28;98405;-67
2021/01/05 09:16:26;;;;;;;16.25;12.52;;;;;;;6.77;72.12;99766.22;4952277;28;96614;-70
2021/01/05 09:18:55;;;;;;;19.88;11.55;;;;;;;6.90;71.56;99768.28;4952613;28;96614;-70
2021/01/05 09:21:23;;;;;;;16.02;12.10;;;;;;;6.79;71.68;99769.56;4951497;28;98521;-70
2021/01/05 09:23:54;;;;;;;12.30;9.05;;;;;;;6.73;70.98;99764.66;4950693;28;98416;-69
2021/01/05 09:26:27;;;;;;;17.70;11.02;;;;;;;6.64;71.76;99771.94;4951292;28;96970;-69
2021/01/05 09:28:53;;;;;;;16.58;10.68;;;;;;;6.63;71.73;99773.69;4933584;28;97063;-66
2021/01/05 09:31:20;;;;;;;22.40;11.88;;;;;;;6.74;71.34;99781.03;4935251;28;98663;-68
2021/01/05 09:33:47;;;;;;;17.15;10.77;;;;;;;6.73;71.88;99777.59;4953325;28;98681;-73
2021/01/05 09:36:14;;;;;;;15.55;10.23;;;;;;;6.48;72.19;99774.31;4954432;28;96584;-74
2021/01/05 09:38:41;;;;;;;16.75;10.60;;;;;;;6.61;72.14;99770.34;4954771;28;96627;-70
2021/01/05 09:41:24;;;;;;;16.38;10.80;;;;;;;6.65;71.95;99769.28;4952369;28;98472;-71
2021/01/05 09:43:51;;;;;;;14.70;10.27;;;;;;;6.64;71.83;99759.00;4923241;28;98463;-67
2021/01/05 09:46:18;;;;;;;17.77;10.55;;;;;;;6.64;71.90;99753.81;4953770;28;96556;-68
2021/01/05 09:48:45;;;;;;;13.75;9.10;;;;;;;6.62;71.77;99747.88;4956181;28;96960;-68
2021/01/05 09:51:19;;;;;;;15.02;10.90;;;;;;;6.74;72.21;99737.00;4953530;28;97478;-66
2021/01/05 09:53:45;;;;;;;13.90;8.93;;;;;;;6.51;73.46;99741.38;4955029;28;98594;-66
2021/01/05 09:56:12;;;;;;;15.48;10.88;;;;;;;6.53;73.39;99734.38;4954644;28;96878;-66
2021/01/05 09:58:38;;;;;;;14.20;9.88;;;;;;;6.70;72.96;99733.69;4955601;28;96628;-66
2021/01/05 10:01:04;;;;;;;13.18;8.10;;;;;;;6.68;73.01;99729.47;4955373;28;98464;-66
2021/01/05 10:03:31;;;;;;;13.02;9.63;;;;;;;6.73;72.30;99724.94;4954057;28;97462;-67
2021/01/05 10:05:57;;;;;;;14.35;10.68;;;;;;;6.61;72.42;99721.13;4955560;28;97851;-68
2021/01/05 10:08:23;;;;;;;16.17;8.98;;;;;;;6.55;73.49;99713.59;4954895;28;96927;-65
2021/01/05 10:10:50;;;;;;;13.18;9.02;;;;;;;6.61;73.02;99721.13;4951262;28;98611;-66
2021/01/05 10:13:16;;;;;;;13.98;10.38;;;;;;;6.68;72.30;99708.75;4949954;28;98524;-66
2021/01/05 10:15:43;;;;;;;17.23;9.50;;;;;;;6.68;72.63;99707.00;4953192;28;97197;-62
2021/01/05 10:18:09;;;;;;;16.05;10.70;;;;;;;6.50;74.38;99700.88;4954615;28;96557;-65
2021/01/05 10:20:35;;;;;;;14.40;9.57;;;;;;;6.64;73.40;99705.44;4953735;28;98615;-60
2021/01/05 10:23:01;;;;;;;17.55;10.15;;;;;;;6.71;73.25;99703.44;4954151;28;98970;-67
2021/01/05 10:25:28;;;;;;;16.50;11.52;;;;;;;6.78;73.08;99690.19;4953715;28;96618;-66
2021/01/05 10:27:54;;;;;;;16.00;11.32;;;;;;;6.57;75.02;99683.31;4954272;28;96485;-67
2021/01/05 10:30:21;;;;;;;15.65;10.68;;;;;;;6.66;74.43;99679.47;4936143;28;98551;-66
2021/01/05 10:32:48;;;;;;;12.60;9.23;;;;;;;6.73;74.57;99684.34;4954979;28;97567;-67
2021/01/05 10:35:18;;;;;;;15.50;10.57;;;;;;;6.65;73.64;99678.63;4953308;28;97062;-65
2021/01/05 10:37:45;;;;;;;12.90;8.27;;;;;;;6.61;73.79;99677.13;4954003;28;96723;-67
2021/01/05 10:40:12;;;;;;;12.77;9.85;;;;;;;6.65;74.12;99675.22;4953356;28;98612;-68
2021/01/05 10:42:42;;;;;;;14.65;10.10;;;;;;;6.66;73.57;99670.00;4953632;28;98833;-69
2021/01/05 10:45:10;;;;;;;11.73;9.65;;;;;;;6.66;73.95;99669.13;4953254;28;96612;-68
2021/01/05 10:47:38;;;;;;;11.13;8.32;;;;;;;6.72;73.18;99668.88;4951832;28;98278;-69
2021/01/05 10:50:09;;;;;;;10.25;7.53;;;;;;;6.69;73.01;99664.66;4953410;28;98508;-69
2021/01/05 10:52:35;;;;;;;11.80;6.97;;;;;;;6.54;73.63;99658.38;4953204;28;98465;-69
2021/01/05 10:55:03;;;;;;;9.27;6.45;;;;;;;6.53;74.25;99648.09;4954066;28;96628;-68
2021/01/05 10:57:29;;;;;;;11.70;8.48;;;;;;;6.71;73.05;99652.50;4947966;28;96639;-68
2021/01/05 10:59:55;;;;;;;13.70;9.13;;;;;;;6.59;73.12;99641.81;4953170;28;98570;-69
2021/01/05 11:02:22;;;;;;;14.18;9.20;;;;;;;6.65;73.33;99636.38;4953744;28;98649;-67
2021/01/05 11:04:48;;;;;;;15.25;9.60;;;;;;;6.60;74.61;99635.72;4953055;28;96910;-68
2021/01/05 11:07:15;;;;;;;13.75;9.27;;;;;;;6.72;73.67;99635.22;4953514;28;97143;-64
2021/01/05 11:09:42;;;;;;;10.70;7.70;;;;;;;6.68;73.52;99624.13;4953045;28;98596;-66
2021/01/05 11:12:10;;;;;;;13.95;9.48;;;;;;;6.77;73.37;99620.31;4953297;28;98534;-66
2021/01/05 11:14:38;;;;;;;9.77;7.70;;;;;;;6.56;74.21;99619.50;4952360;28;97069;-66
2021/01/05 11:17:04;;;;;;;12.77;7.97;;;;;;;6.61;73.81;99617.56;4935778;28;97572;-67
2021/01/05 11:19:31;;;;;;;12.38;8.38;;;;;;;6.78;73.58;99617.63;4950175;28;98471;-67
2021/01/05 11:21:59;;;;;;;10.35;7.45;;;;;;;6.72;73.51;99623.09;4951849;28;98505;-66
2021/01/05 11:24:26;;;;;;;10.85;7.00;;;;;;;6.88;72.58;99614.66;4933087;28;97154;-64
2021/01/05 11:26:53;;;;;;;12.45;8.48;;;;;;;6.85;73.21;99607.00;4950359;28;96660;-68
2021/01/05 11:29:19;;;;;;;12.07;8.27;;;;;;;6.75;73.26;99607.41;4949998;28;99689;-67
2021/01/05 11:31:55;;;;;;;12.65;8.90;;;;;;;6.83;72.92;99600.13;4950608;28;98465;-67
2021/01/05 11:34:22;;;;;;;14.13;8.65;;;;;;;6.89;72.76;99595.59;4948097;28;97140;-69
2021/01/05 11:36:49;;;;;;;13.10;8.43;;;;;;;6.94;72.56;99601.41;4951621;28;97189;-73
2021/01/05 11:39:15;;;;;;;12.68;9.68;;;;;;;6.97;72.33;99602.09;4948706;28;98335;-75
2021/01/05 11:41:45;;;;;;;10.95;8.90;;;;;;;7.04;72.47;99598.34;4945229;28;99957;-74
2021/01/05 11:44:15;;;;;;;13.35;11.10;;;;;;;7.02;72.74;99589.78;4947126;28;96914;-74
2021/01/05 11:46:43;;;;;;;15.80;12.95;;;;;;;7.02;72.64;99594.13;4950972;28;96677;-76
2021/01/05 11:49:09;;;;;;;14.10;10.43;;;;;;;6.78;72.94;99580.53;4950500;28;98518;-75
2021/01/05 11:51:36;;;;;;;13.90;10.90;;;;;;;6.97;73.02;99585.72;4951144;28;98531;-72